Terminal Aerodrome Forecast
Issued by NWS

Current Version | Previous Version | Text Only | Print | Product List | Glossary Off
Versions: 1 2 3 4 5 6 7 8 9 10 11 12 13 14 15 16 17 18 19 20 21 22 23 24

718
FTUS41 KPBZ 120520
TAFMGW
TAF
KMGW 120520Z 1206/1306 00000KT P6SM OVC080
     FM121200 23010G26KT 6SM -SN OVC015
     FM121800 27012G25KT P6SM OVC025
     FM122300 29015G25KT 5SM -SN OVC025=

USA.gov is the U.S. government's official web portal to all federal, state and local government web resources and services.